createdAt,value
2018-09-04T00:00:04.185Z,94.57
2018-09-04T00:02:32.473Z,94.48
2018-09-04T00:05:00.811Z,94.10
2018-09-04T00:07:29.113Z,93.92
2018-09-04T00:09:57.422Z,94.39
2018-09-04T00:12:25.693Z,94.22
2018-09-04T00:14:56.094Z,94.13
2018-09-04T00:17:24.366Z,94.05
2018-09-04T00:19:52.714Z,93.76
2018-09-04T00:22:21.000Z,93.87
2018-09-04T00:24:50.285Z,94.11
2018-09-04T00:27:19.617Z,93.61
2018-09-04T00:29:47.948Z,93.56
2018-09-04T00:32:16.249Z,93.16
2018-09-04T00:34:44.630Z,93.38
2018-09-04T00:37:13.514Z,93.43
2018-09-04T00:39:44.525Z,93.60
2018-09-04T00:42:12.859Z,93.62
2018-09-04T00:44:41.456Z,93.45
2018-09-04T00:47:09.753Z,93.77
2018-09-04T00:49:39.146Z,93.26
2018-09-04T00:52:08.541Z,92.83
2018-09-04T00:54:36.858Z,92.79
2018-09-04T00:57:05.310Z,93.33
2018-09-04T00:59:33.573Z,93.26
2018-09-04T01:02:01.889Z,92.84
2018-09-04T01:04:30.198Z,92.74
2018-09-04T01:06:58.497Z,92.58
2018-09-04T01:09:26.772Z,92.65
2018-09-04T01:11:55.149Z,92.63
2018-09-04T01:14:23.458Z,92.58
2018-09-04T01:16:51.865Z,92.24
2018-09-04T01:19:20.169Z,92.78
2018-09-04T01:21:48.460Z,92.19
2018-09-04T01:24:16.797Z,92.13
2018-09-04T01:26:45.085Z,92.45
2018-09-04T01:29:13.446Z,92.34
2018-09-04T01:31:41.819Z,92.11
2018-09-04T01:34:10.133Z,92.42
2018-09-04T01:36:39.360Z,92.08
2018-09-04T01:39:07.849Z,92.04
2018-09-04T01:41:36.108Z,91.49
2018-09-04T01:44:04.400Z,91.81
2018-09-04T01:46:32.697Z,92.07
2018-09-04T01:49:00.989Z,92.22
2018-09-04T01:51:29.585Z,92.58
2018-09-04T01:53:57.877Z,92.57
2018-09-04T01:56:26.149Z,92.31
2018-09-04T01:58:54.445Z,92.25
2018-09-04T02:01:22.746Z,92.92
2018-09-04T02:03:51.170Z,92.54
2018-09-04T02:06:19.456Z,92.22
2018-09-04T02:08:47.721Z,92.33
2018-09-04T02:11:16.012Z,92.59
2018-09-04T02:13:44.294Z,92.09
2018-09-04T02:16:12.625Z,92.17
2018-09-04T02:18:40.905Z,92.55
2018-09-04T02:21:09.356Z,92.99
2018-09-04T02:23:37.614Z,92.25
2018-09-04T02:26:06.377Z,92.22
2018-09-04T02:28:34.779Z,92.19
2018-09-04T02:31:03.157Z,92.45
2018-09-04T02:33:31.521Z,92.20
2018-09-04T02:35:59.835Z,92.22
2018-09-04T02:38:28.241Z,92.59
2018-09-04T02:40:56.582Z,92.98
2018-09-04T02:43:24.883Z,93.09
2018-09-04T02:45:53.189Z,92.73
2018-09-04T02:48:21.474Z,92.31
2018-09-04T02:50:50.237Z,93.26
2018-09-04T02:53:18.504Z,93.03
2018-09-04T02:55:46.804Z,93.17
2018-09-04T02:58:15.092Z,93.14
2018-09-04T03:00:43.435Z,92.71
2018-09-04T03:03:11.705Z,92.61
2018-09-04T03:05:39.960Z,92.45
2018-09-04T03:08:08.310Z,92.62
2018-09-04T03:10:36.564Z,92.68
2018-09-04T03:13:04.843Z,92.89
2018-09-04T03:15:33.178Z,92.81
2018-09-04T03:18:01.457Z,92.39
2018-09-04T03:20:29.732Z,93.11
2018-09-04T03:22:58.145Z,92.81
2018-09-04T03:25:26.422Z,93.16
2018-09-04T03:27:54.701Z,93.44
2018-09-04T03:30:22.953Z,93.29
2018-09-04T03:32:51.269Z,93.10
2018-09-04T03:35:19.530Z,92.90
2018-09-04T03:37:47.801Z,93.24
2018-09-04T03:40:16.057Z,93.93
2018-09-04T03:42:44.356Z,93.76
2018-09-04T03:45:12.645Z,92.82
2018-09-04T03:47:40.939Z,93.05
2018-09-04T03:50:09.248Z,92.86
2018-09-04T03:52:37.529Z,93.20
2018-09-04T03:55:05.936Z,93.45
2018-09-04T03:57:35.288Z,93.09
2018-09-04T04:00:03.573Z,92.71
2018-09-04T04:02:31.821Z,93.35
2018-09-04T04:05:00.101Z,92.99
2018-09-04T04:07:28.362Z,92.51
2018-09-04T04:09:56.644Z,92.74
2018-09-04T04:12:25.029Z,92.60
2018-09-04T04:14:53.297Z,92.62
2018-09-04T04:17:21.580Z,92.46
2018-09-04T04:19:49.865Z,92.41
2018-09-04T04:22:18.118Z,92.34
2018-09-04T04:24:46.393Z,91.60
2018-09-04T04:27:14.641Z,91.77
2018-09-04T04:29:42.973Z,92.17
2018-09-04T04:32:11.233Z,91.81
2018-09-04T04:34:39.617Z,91.95
2018-09-04T04:37:07.871Z,92.14
2018-09-04T04:39:36.145Z,91.95
2018-09-04T04:42:04.409Z,92.32
2018-09-04T04:44:32.908Z,92.19
2018-09-04T04:47:01.197Z,91.10
2018-09-04T04:49:29.455Z,91.39
2018-09-04T04:51:57.721Z,90.73
2018-09-04T04:54:25.995Z,91.52
2018-09-04T04:56:54.274Z,91.08
2018-09-04T04:59:22.522Z,90.70
2018-09-04T05:01:50.809Z,90.76
2018-09-04T05:04:19.150Z,89.86
2018-09-04T05:06:47.480Z,89.32
2018-09-04T05:09:15.801Z,89.32
2018-09-04T05:11:44.109Z,89.50
2018-09-04T05:14:12.359Z,89.27
2018-09-04T05:16:40.666Z,89.52
2018-09-04T05:19:08.922Z,87.70
2018-09-04T05:21:37.209Z,88.43
2018-09-04T05:24:05.641Z,88.14
2018-09-04T05:26:33.917Z,88.78
2018-09-04T05:29:02.198Z,88.86
2018-09-04T05:31:35.188Z,89.45
2018-09-04T05:34:03.473Z,89.84
2018-09-04T05:36:31.829Z,89.06
2018-09-04T05:39:00.114Z,88.00
2018-09-04T05:41:29.486Z,87.18
2018-09-04T05:43:59.627Z,86.01
2018-09-04T05:46:37.605Z,86.55
2018-09-04T05:49:05.956Z,86.43
2018-09-04T05:51:34.257Z,86.35
2018-09-04T05:54:02.601Z,85.73
2018-09-04T05:56:31.265Z,85.23
2018-09-04T05:58:59.518Z,85.08
2018-09-04T06:01:27.800Z,85.13
2018-09-04T06:03:56.143Z,84.12
2018-09-04T06:06:24.406Z,85.36
2018-09-04T06:08:52.717Z,84.29
2018-09-04T06:11:20.983Z,82.78
2018-09-04T06:13:49.432Z,81.10
2018-09-04T06:16:17.917Z,80.59
2018-09-04T06:18:46.237Z,79.68
2018-09-04T06:21:14.509Z,81.11
2018-09-04T06:23:42.889Z,82.06
2018-09-04T06:26:11.158Z,82.80
2018-09-04T06:28:39.445Z,83.32
2018-09-04T06:31:07.769Z,82.56
2018-09-04T06:33:36.400Z,82.14
2018-09-04T06:36:05.048Z,81.08
2018-09-04T06:38:33.341Z,79.92
2018-09-04T06:41:01.622Z,79.14
2018-09-04T06:43:29.884Z,77.84
2018-09-04T06:45:58.221Z,76.41
2018-09-04T06:48:26.505Z,74.46
2018-09-04T06:50:54.853Z,73.36
2018-09-04T06:53:23.097Z,73.37
2018-09-04T06:55:51.373Z,73.53
2018-09-04T06:58:19.615Z,73.81
2018-09-04T07:00:47.878Z,74.27
2018-09-04T07:03:16.130Z,73.58
2018-09-04T07:05:44.445Z,74.50
2018-09-04T07:08:12.690Z,74.14
2018-09-04T07:10:40.972Z,72.64
2018-09-04T07:13:09.248Z,71.65
2018-09-04T07:15:37.546Z,70.31
2018-09-04T07:18:06.464Z,68.46
2018-09-04T07:20:34.761Z,69.41
2018-09-04T07:23:03.009Z,71.88
2018-09-04T07:25:31.301Z,72.94
2018-09-04T07:27:59.617Z,72.01
2018-09-04T07:30:28.979Z,70.89
2018-09-04T07:32:57.218Z,70.61
2018-09-04T07:35:25.501Z,69.68
2018-09-04T07:37:53.778Z,70.30
2018-09-04T07:40:22.013Z,68.31
2018-09-04T07:42:50.314Z,69.05
2018-09-04T07:45:18.609Z,68.39
2018-09-04T07:47:47.217Z,69.83
2018-09-04T07:50:15.564Z,70.09
2018-09-04T07:52:43.835Z,68.92
2018-09-04T07:55:12.089Z,69.62
2018-09-04T07:57:40.391Z,68.31
2018-09-04T08:00:09.357Z,68.27
2018-09-04T08:02:37.644Z,69.34
2018-09-04T08:05:06.387Z,68.89
2018-09-04T08:07:34.886Z,69.74
2018-09-04T08:10:03.183Z,67.71
2018-09-04T08:12:31.469Z,67.28
2018-09-04T08:14:59.793Z,66.74
2018-09-04T08:17:29.066Z,68.49
2018-09-04T08:19:57.352Z,67.54
2018-09-04T08:22:25.628Z,64.63
2018-09-04T08:24:53.913Z,63.87
2018-09-04T08:27:22.217Z,61.08
2018-09-04T08:29:50.455Z,61.53
2018-09-04T08:32:18.692Z,62.51
2018-09-04T08:34:47.149Z,63.92
2018-09-04T08:37:15.390Z,64.83
2018-09-04T08:39:43.642Z,65.91
2018-09-04T08:42:11.922Z,65.45
2018-09-04T08:44:40.169Z,65.59
2018-09-04T08:47:08.605Z,66.02
2018-09-04T08:49:36.840Z,67.00
2018-09-04T08:52:05.112Z,66.08
2018-09-04T08:54:33.369Z,66.64
2018-09-04T08:57:01.700Z,66.92
2018-09-04T08:59:30.221Z,65.36
2018-09-04T09:01:59.514Z,62.91
2018-09-04T09:04:27.851Z,61.48
2018-09-04T09:06:56.105Z,62.85
2018-09-04T09:09:27.421Z,61.44
2018-09-04T09:11:55.729Z,61.92
2018-09-04T09:14:24.045Z,59.79
2018-09-04T09:16:52.465Z,57.85
2018-09-04T09:19:20.609Z,57.83
2018-09-04T09:21:48.971Z,59.04
2018-09-04T09:24:17.209Z,60.13
2018-09-04T09:26:45.480Z,58.92
2018-09-04T09:29:13.730Z,57.39
2018-09-04T09:31:42.078Z,57.45
2018-09-04T09:34:10.446Z,55.17
2018-09-04T09:36:38.790Z,55.45
2018-09-04T09:39:08.645Z,56.95
2018-09-04T09:41:38.134Z,56.54
2018-09-04T09:44:06.368Z,53.92
2018-09-04T09:46:34.690Z,52.81
2018-09-04T09:49:02.938Z,52.00
2018-09-04T09:51:31.268Z,51.32
2018-09-04T09:53:59.601Z,51.50
2018-09-04T09:56:27.949Z,52.28
2018-09-04T09:58:56.170Z,51.09
2018-09-04T10:01:29.871Z,51.61
2018-09-04T10:03:58.201Z,51.51
2018-09-04T10:06:27.664Z,52.58
2018-09-04T10:08:55.987Z,51.00
2018-09-04T10:11:24.316Z,51.62
2018-09-04T10:13:52.650Z,51.94
2018-09-04T10:16:20.929Z,53.26
2018-09-04T10:18:50.301Z,53.96
2018-09-04T10:21:18.579Z,53.66
2018-09-04T10:23:47.048Z,54.80
2018-09-04T10:26:15.342Z,55.19
2018-09-04T10:28:43.605Z,54.79
2018-09-04T10:31:11.855Z,53.48
2018-09-04T10:33:40.140Z,54.28
2018-09-04T10:36:08.405Z,53.70
2018-09-04T10:38:36.714Z,53.99
2018-09-04T10:41:09.773Z,54.70
2018-09-04T10:43:38.178Z,55.10
2018-09-04T10:46:09.074Z,55.88
2018-09-04T10:48:37.394Z,56.10
2018-09-04T10:51:05.973Z,56.82
2018-09-04T10:53:34.409Z,54.19
2018-09-04T10:56:02.665Z,55.47
2018-09-04T10:58:31.062Z,54.94
2018-09-04T11:00:59.325Z,52.49
2018-09-04T11:03:27.801Z,50.88
2018-09-04T11:05:56.101Z,49.21
2018-09-04T11:08:24.385Z,51.36
2018-09-04T11:10:52.709Z,51.57
2018-09-04T11:13:20.985Z,51.26
2018-09-04T11:15:49.261Z,50.37
2018-09-04T11:18:17.574Z,50.17
2018-09-04T11:20:45.849Z,50.79
2018-09-04T11:23:14.093Z,50.58
2018-09-04T11:25:42.409Z,50.78
2018-09-04T11:28:10.689Z,50.78
2018-09-04T11:30:38.986Z,51.97
2018-09-04T11:33:07.344Z,53.73
2018-09-04T11:35:35.626Z,52.96
2018-09-04T11:38:03.865Z,52.28
2018-09-04T11:40:32.173Z,52.76
2018-09-04T11:43:00.734Z,51.71
2018-09-04T11:45:29.017Z,51.64
2018-09-04T11:47:58.872Z,51.82
2018-09-04T11:50:27.340Z,51.94
2018-09-04T11:52:55.613Z,52.43
2018-09-04T11:55:24.289Z,51.20
2018-09-04T11:57:52.544Z,50.28
2018-09-04T12:00:31.429Z,51.13
2018-09-04T12:03:00.013Z,51.26
2018-09-04T12:05:29.473Z,50.84
2018-09-04T12:07:57.721Z,51.06
2018-09-04T12:10:25.970Z,51.17
2018-09-04T12:12:54.293Z,51.29
2018-09-04T12:15:22.485Z,50.82
2018-09-04T12:17:50.801Z,50.08
2018-09-04T12:20:29.427Z,49.01
2018-09-04T12:22:57.704Z,48.82
2018-09-04T12:25:26.593Z,49.65
2018-09-04T12:27:54.869Z,49.06
2018-09-04T12:30:23.147Z,49.40
2018-09-04T12:32:51.586Z,47.96
2018-09-04T12:35:20.045Z,47.93
2018-09-04T12:37:48.311Z,49.98
2018-09-04T12:40:16.553Z,49.18
2018-09-04T12:42:44.830Z,48.73
2018-09-04T12:45:13.205Z,49.43
2018-09-04T12:47:41.561Z,48.86
2018-09-04T12:50:09.797Z,49.83
2018-09-04T12:52:38.057Z,50.67
2018-09-04T12:55:06.783Z,48.67
2018-09-04T12:57:35.061Z,49.88
2018-09-04T13:00:03.366Z,49.35
2018-09-04T13:02:32.746Z,49.46
2018-09-04T13:05:01.017Z,50.08
2018-09-04T13:07:29.277Z,49.20
2018-09-04T13:09:57.577Z,51.12
2018-09-04T13:12:25.841Z,50.29
2018-09-04T13:14:54.136Z,48.72
2018-09-04T13:17:22.451Z,47.36
2018-09-04T13:19:50.809Z,46.55
2018-09-04T13:22:19.061Z,47.57
2018-09-04T13:24:47.486Z,48.23
2018-09-04T13:27:15.941Z,48.30
2018-09-04T13:29:44.209Z,48.13
2018-09-04T13:32:12.552Z,44.46
2018-09-04T13:34:40.833Z,41.95
2018-09-04T13:37:09.865Z,41.38
2018-09-04T13:39:38.141Z,39.73
2018-09-04T13:42:07.105Z,35.95
2018-09-04T13:44:35.492Z,34.37
2018-09-04T13:47:03.812Z,36.76
2018-09-04T13:49:32.246Z,42.00
2018-09-04T13:52:00.373Z,43.21
2018-09-04T13:54:29.645Z,43.82
2018-09-04T13:56:57.932Z,45.38
2018-09-04T13:59:26.185Z,45.95
2018-09-04T14:01:54.554Z,46.07
2018-09-04T14:04:24.797Z,46.18
2018-09-04T14:06:53.082Z,46.59
2018-09-04T14:09:53.745Z,46.22
2018-09-04T14:12:22.057Z,47.21
2018-09-04T14:14:50.433Z,48.82
2018-09-04T14:17:20.153Z,48.61
2018-09-04T14:19:49.443Z,48.52
2018-09-04T14:22:17.726Z,48.61
2018-09-04T14:24:45.958Z,46.41
2018-09-04T14:27:14.241Z,45.47
2018-09-04T14:30:15.541Z,42.45
2018-09-04T14:32:10.749Z,42.80
2018-09-04T14:34:39.012Z,45.01
2018-09-04T14:37:07.391Z,46.79
2018-09-04T14:39:35.554Z,47.57
2018-09-04T14:42:03.827Z,47.79
2018-09-04T14:44:32.077Z,47.82
2018-09-04T14:47:00.311Z,46.93
2018-09-04T14:49:28.570Z,46.84
2018-09-04T14:51:56.822Z,46.60
2018-09-04T14:54:25.101Z,44.46
2018-09-04T14:56:53.399Z,43.64
2018-09-04T14:59:21.689Z,46.77
2018-09-04T15:01:50.031Z,46.59
2018-09-04T15:04:18.333Z,46.42
2018-09-04T15:06:46.604Z,44.80
2018-09-04T15:09:14.984Z,45.26
2018-09-04T15:11:43.234Z,42.46
2018-09-04T15:14:11.533Z,38.29
2018-09-04T15:16:43.046Z,32.89
2018-09-04T15:19:14.896Z,28.49
2018-09-04T15:21:45.282Z,26.98
2018-09-04T15:24:16.361Z,26.41
2018-09-04T15:26:47.446Z,24.95
2018-09-04T15:29:19.274Z,24.56
2018-09-04T15:31:48.542Z,24.37
2018-09-04T15:34:19.866Z,23.45
2018-09-04T15:36:51.505Z,22.79
2018-09-04T15:39:22.580Z,23.00
2018-09-04T15:41:53.351Z,23.42
2018-09-04T15:44:22.004Z,25.16
2018-09-04T15:46:50.296Z,29.46
2018-09-04T15:49:23.732Z,27.80
2018-09-04T15:51:52.037Z,25.12
2018-09-04T15:54:20.319Z,27.24
2018-09-04T15:56:48.598Z,32.55
2018-09-04T15:59:16.869Z,37.92
2018-09-04T16:01:45.129Z,42.37
2018-09-04T16:04:13.413Z,45.89
2018-09-04T16:06:42.737Z,43.78
2018-09-04T16:09:10.969Z,36.94
2018-09-04T16:11:39.268Z,32.87
2018-09-04T16:14:07.638Z,30.20
2018-09-04T16:16:35.972Z,28.68
2018-09-04T16:19:04.237Z,32.60
2018-09-04T16:21:32.517Z,35.04
2018-09-04T16:24:00.762Z,31.98
2018-09-04T16:26:29.037Z,33.44
2018-09-04T16:28:57.285Z,34.12
2018-09-04T16:31:25.546Z,31.62
2018-09-04T16:33:53.857Z,30.59
2018-09-04T16:36:22.140Z,31.92
2018-09-04T16:38:51.110Z,32.42
2018-09-04T16:41:19.433Z,32.06
2018-09-04T16:43:47.657Z,31.23
2018-09-04T16:46:16.090Z,34.21
2018-09-04T16:48:44.358Z,38.95
2018-09-04T16:51:12.633Z,42.15
2018-09-04T16:53:40.957Z,44.71
2018-09-04T16:56:09.580Z,47.67
2018-09-04T16:58:37.833Z,50.19
2018-09-04T17:01:06.190Z,51.74
2018-09-04T17:03:34.465Z,52.33
2018-09-04T17:06:02.797Z,53.89
2018-09-04T17:08:31.073Z,53.26
2018-09-04T17:10:59.321Z,54.63
2018-09-04T17:13:27.592Z,54.97
2018-09-04T17:15:55.845Z,55.14
2018-09-04T17:18:24.141Z,55.26
2018-09-04T17:20:52.387Z,55.63
2018-09-04T17:23:20.658Z,56.67
2018-09-04T17:25:48.950Z,57.06
2018-09-04T17:28:17.233Z,56.80
2018-09-04T17:30:45.472Z,57.02
2018-09-04T17:33:13.769Z,56.71
2018-09-04T17:35:42.009Z,58.34
2018-09-04T17:38:10.281Z,57.81
2018-09-04T17:40:38.537Z,58.28
2018-09-04T17:43:06.989Z,57.89
2018-09-04T17:45:35.288Z,58.93
2018-09-04T17:48:03.684Z,59.25
2018-09-04T17:50:31.841Z,59.65
2018-09-04T17:53:00.237Z,60.15
2018-09-04T17:55:28.501Z,59.86
2018-09-04T17:57:56.743Z,60.44
2018-09-04T18:00:25.001Z,60.81
2018-09-04T18:02:53.248Z,60.85
2018-09-04T18:05:21.525Z,60.20
2018-09-04T18:07:49.762Z,61.00
2018-09-04T18:10:18.033Z,61.97
2018-09-04T18:12:46.277Z,61.37
2018-09-04T18:15:14.598Z,61.23
2018-09-04T18:17:42.845Z,62.26
2018-09-04T18:20:12.130Z,61.37
2018-09-04T18:22:40.377Z,61.16
2018-09-04T18:25:08.689Z,61.63
2018-09-04T18:27:36.937Z,62.51
2018-09-04T18:30:05.314Z,60.90
2018-09-04T18:37:22.230Z,62.36
2018-09-04T18:39:50.792Z,62.61
2018-09-04T18:42:19.017Z,63.11
2018-09-04T18:44:47.273Z,62.62
2018-09-04T18:47:15.537Z,62.95
2018-09-04T18:49:43.830Z,63.62
2018-09-04T18:52:12.809Z,63.54
2018-09-04T18:54:41.066Z,63.70
2018-09-04T18:57:09.409Z,63.50
2018-09-04T18:59:38.230Z,63.10
2018-09-04T19:02:06.459Z,63.38
2018-09-04T19:04:34.725Z,63.36
2018-09-04T19:07:02.973Z,64.43
2018-09-04T19:09:31.239Z,64.92
2018-09-04T19:11:59.533Z,65.16
2018-09-04T19:14:27.977Z,65.68
2018-09-04T19:16:57.365Z,65.00
2018-09-04T19:19:26.077Z,66.16
2018-09-04T19:21:54.326Z,66.66
2018-09-04T19:24:22.688Z,67.44
2018-09-04T19:26:50.946Z,66.81
2018-09-04T19:29:19.217Z,68.24
2018-09-04T19:31:47.547Z,68.19
2018-09-04T19:34:15.813Z,68.26
2018-09-04T19:36:46.846Z,68.48
2018-09-04T19:39:16.623Z,68.81
2018-09-04T19:41:44.877Z,69.29
2018-09-04T19:44:13.165Z,69.50
2018-09-04T19:46:41.482Z,69.49
2018-09-04T19:49:10.021Z,70.10
2018-09-04T19:51:38.305Z,70.22
2018-09-04T19:54:06.729Z,70.98
2018-09-04T19:56:35.053Z,70.70
2018-09-04T19:59:03.360Z,71.47
2018-09-04T20:01:31.609Z,72.53
2018-09-04T20:03:59.921Z,72.38
2018-09-04T20:06:32.855Z,72.44
2018-09-04T20:09:01.192Z,73.00
2018-09-04T20:11:29.454Z,73.37
2018-09-04T20:14:00.661Z,73.71
2018-09-04T20:16:31.751Z,73.41
2018-09-04T20:19:03.098Z,74.21
2018-09-04T20:21:33.644Z,73.80
2018-09-04T20:24:04.938Z,74.74
2018-09-04T20:26:36.278Z,75.14
2018-09-04T20:29:08.043Z,75.02
2018-09-04T20:31:39.576Z,75.14
2018-09-04T20:34:11.081Z,75.07
2018-09-04T20:36:42.351Z,75.48
2018-09-04T20:39:10.609Z,76.01
2018-09-04T20:41:40.045Z,75.46
2018-09-04T20:44:08.441Z,76.06
2018-09-04T20:46:36.753Z,76.17
2018-09-04T20:49:05.068Z,75.73
2018-09-04T20:51:33.361Z,76.43
2018-09-04T20:54:01.609Z,77.60
2018-09-04T20:56:29.877Z,77.63
2018-09-04T20:59:09.349Z,78.84
2018-09-04T21:01:49.141Z,79.41
2018-09-04T21:04:28.737Z,78.52
2018-09-04T21:06:56.309Z,78.38
2018-09-04T21:09:44.456Z,78.00
2018-09-04T21:12:12.909Z,78.75
2018-09-04T21:14:41.161Z,79.01
2018-09-04T21:17:09.475Z,78.96
2018-09-04T21:19:37.856Z,79.15
2018-09-04T21:22:06.141Z,79.95
2018-09-04T21:24:34.405Z,79.29
2018-09-04T21:27:02.697Z,80.64
2018-09-04T21:29:30.973Z,80.79
2018-09-04T21:31:59.277Z,81.04
2018-09-04T21:34:27.561Z,80.92
2018-09-04T21:36:55.807Z,81.02
2018-09-04T21:39:24.100Z,80.41
2018-09-04T21:41:52.390Z,80.16
2018-09-04T21:44:20.694Z,80.09
2018-09-04T21:46:49.006Z,79.53
2018-09-04T21:49:17.733Z,80.15
2018-09-04T21:51:45.981Z,80.81
2018-09-04T21:54:14.261Z,80.75
2018-09-04T21:56:42.581Z,80.57
2018-09-04T21:59:10.910Z,80.77
2018-09-04T22:01:39.210Z,80.70
2018-09-04T22:04:07.493Z,80.65
2018-09-04T22:06:35.789Z,81.06
2018-09-04T22:09:04.893Z,80.86
2018-09-04T22:11:33.197Z,80.66
2018-09-04T22:14:01.485Z,81.22
2018-09-04T22:16:30.841Z,80.99
2018-09-04T22:19:00.117Z,80.75
2018-09-04T22:21:28.429Z,80.38
2018-09-04T22:23:56.678Z,80.00
2018-09-04T22:26:24.979Z,80.23
2018-09-04T22:28:53.249Z,80.61
2018-09-04T22:31:21.615Z,80.93
2018-09-04T22:33:49.821Z,81.29
2018-09-04T22:36:18.109Z,81.29
2018-09-04T22:38:46.369Z,80.74
2018-09-04T22:41:14.641Z,81.07
2018-09-04T22:43:42.894Z,80.85
2018-09-04T22:46:11.169Z,80.53
2018-09-04T22:48:39.445Z,80.38
2018-09-04T22:51:13.037Z,80.91
2018-09-04T22:53:41.312Z,81.03
2018-09-04T22:56:09.604Z,81.51
2018-09-04T22:58:37.878Z,81.24
2018-09-04T23:01:06.661Z,81.63
2018-09-04T23:03:34.925Z,81.71
2018-09-04T23:06:03.185Z,81.33
2018-09-04T23:08:31.456Z,80.90
2018-09-04T23:10:59.776Z,81.39
2018-09-04T23:13:28.086Z,81.79
2018-09-04T23:15:56.389Z,81.91
2018-09-04T23:18:24.665Z,81.30
2018-09-04T23:20:54.052Z,82.21
2018-09-04T23:23:22.343Z,81.71
2018-09-04T23:25:50.629Z,82.25
2018-09-04T23:28:18.933Z,82.64
2018-09-04T23:30:47.210Z,82.98
2018-09-04T23:33:16.550Z,82.44
2018-09-04T23:35:45.609Z,82.70
2018-09-04T23:38:13.873Z,82.08
2018-09-04T23:40:42.158Z,82.81
2018-09-04T23:43:10.732Z,82.25
2018-09-04T23:45:38.992Z,82.25
2018-09-04T23:48:07.609Z,83.34
2018-09-04T23:50:35.923Z,83.72
2018-09-04T23:53:04.249Z,83.48
2018-09-04T23:55:32.575Z,83.55
2018-09-04T23:58:00.881Z,83.38
